createdAt,value
2017-11-11T00:00:47.267Z,5.40
2017-11-11T00:03:15.698Z,5.30
2017-11-11T00:05:43.393Z,5.30
2017-11-11T00:08:11.049Z,5.30
2017-11-11T00:10:38.780Z,5.20
2017-11-11T00:13:06.433Z,5.20
2017-11-11T00:15:34.157Z,5.20
2017-11-11T00:18:02.587Z,5.20
2017-11-11T00:20:30.281Z,5.10
2017-11-11T00:22:58.709Z,5.10
2017-11-11T00:25:26.416Z,5.10
2017-11-11T00:27:54.840Z,4.90
2017-11-11T00:30:22.532Z,4.90
2017-11-11T00:32:50.177Z,4.80
2017-11-11T00:35:17.864Z,4.80
2017-11-11T00:37:45.517Z,4.80
2017-11-11T00:40:13.219Z,4.80
2017-11-11T00:42:40.878Z,4.80
2017-11-11T00:45:08.577Z,4.80
2017-11-11T00:47:36.221Z,4.80
2017-11-11T00:50:03.935Z,4.80
2017-11-11T00:52:32.356Z,4.90
2017-11-11T00:55:00.006Z,4.80
2017-11-11T00:57:27.704Z,4.80
2017-11-11T00:59:55.352Z,4.90
2017-11-11T01:02:23.056Z,4.80
2017-11-11T01:04:51.480Z,4.80
2017-11-11T01:07:19.176Z,4.80
2017-11-11T01:09:46.845Z,4.80
2017-11-11T01:12:15.310Z,4.80
2017-11-11T01:14:42.967Z,4.70
2017-11-11T01:17:10.657Z,4.80
2017-11-11T01:19:39.068Z,4.60
2017-11-11T01:22:06.769Z,4.60
2017-11-11T01:24:34.425Z,4.40
2017-11-11T01:27:02.127Z,4.20
2017-11-11T01:29:29.782Z,4.20
2017-11-11T01:31:57.475Z,4.20
2017-11-11T01:34:25.143Z,4.20
2017-11-11T01:36:52.844Z,4.00
2017-11-11T01:39:21.380Z,3.70
2017-11-11T01:41:49.085Z,3.70
2017-11-11T01:44:17.528Z,3.40
2017-11-11T01:46:45.237Z,3.30
2017-11-11T01:49:12.887Z,3.30
2017-11-11T01:51:41.356Z,3.60
2017-11-11T01:54:09.780Z,3.60
2017-11-11T01:56:37.512Z,3.60
2017-11-11T01:59:05.235Z,3.40
2017-11-11T02:01:32.979Z,3.30
2017-11-11T02:04:00.724Z,3.30
2017-11-11T02:06:28.480Z,3.20
2017-11-11T02:08:56.194Z,3.50
2017-11-11T02:11:24.688Z,3.50
2017-11-11T02:13:52.381Z,3.50
2017-11-11T02:16:20.092Z,3.60
2017-11-11T02:18:48.523Z,3.80
2017-11-11T02:21:16.256Z,3.80
2017-11-11T02:23:43.980Z,3.80
2017-11-11T02:26:11.757Z,3.80
2017-11-11T02:28:40.239Z,3.50
2017-11-11T02:31:08.781Z,3.40
2017-11-11T02:33:36.484Z,3.40
2017-11-11T02:36:04.988Z,2.90
2017-11-11T02:38:32.757Z,2.90
2017-11-11T02:41:00.548Z,2.80
2017-11-11T02:43:28.302Z,3.00
2017-11-11T02:45:56.072Z,3.00
2017-11-11T02:48:23.796Z,3.10
2017-11-11T02:50:51.569Z,3.30
2017-11-11T02:53:19.240Z,3.30
2017-11-11T02:55:46.977Z,3.30
2017-11-11T02:58:14.688Z,3.20
2017-11-11T03:00:42.432Z,3.30
2017-11-11T03:03:10.117Z,3.40
2017-11-11T03:05:38.628Z,3.30
2017-11-11T03:08:06.284Z,3.30
2017-11-11T03:10:34.007Z,3.50
2017-11-11T03:13:02.488Z,3.60
2017-11-11T03:15:30.227Z,3.60
2017-11-11T03:17:58.696Z,3.70
2017-11-11T03:20:26.376Z,3.60
2017-11-11T03:22:54.094Z,3.40
2017-11-11T03:25:21.750Z,3.40
2017-11-11T03:27:49.452Z,3.40
2017-11-11T03:30:17.100Z,3.50
2017-11-11T03:32:44.807Z,3.70
2017-11-11T03:35:13.222Z,3.70
2017-11-11T03:37:40.908Z,3.70
2017-11-11T03:40:08.568Z,3.80
2017-11-11T03:42:36.256Z,3.80
2017-11-11T03:45:04.673Z,3.90
2017-11-11T03:47:32.373Z,3.80
2017-11-11T03:50:00.048Z,3.80
2017-11-11T03:52:28.509Z,3.90
2017-11-11T03:54:56.156Z,3.80
2017-11-11T03:57:23.842Z,3.90
2017-11-11T03:59:52.265Z,4.10
2017-11-11T04:02:19.969Z,4.00
2017-11-11T04:04:47.616Z,4.00
2017-11-11T04:07:15.309Z,4.10
2017-11-11T04:09:43.740Z,4.00
2017-11-11T04:12:11.449Z,4.00
2017-11-11T04:14:40.117Z,4.10
2017-11-11T04:17:08.616Z,4.10
2017-11-11T04:19:36.259Z,4.10
2017-11-11T04:22:04.728Z,4.20
2017-11-11T04:24:32.392Z,4.20
2017-11-11T04:27:00.865Z,4.30
2017-11-11T04:29:28.526Z,4.30
2017-11-11T04:31:57.005Z,4.40
2017-11-11T04:34:25.436Z,4.30
2017-11-11T04:36:53.145Z,4.30
2017-11-11T04:39:21.572Z,4.40
2017-11-11T04:41:49.276Z,4.40
2017-11-11T04:44:16.944Z,4.40
2017-11-11T04:46:45.451Z,4.40
2017-11-11T04:49:13.166Z,4.40
2017-11-11T04:51:40.889Z,4.40
2017-11-11T04:54:08.605Z,4.50
2017-11-11T04:56:37.069Z,4.40
2017-11-11T04:59:04.741Z,4.40
2017-11-11T05:01:33.206Z,4.40
2017-11-11T05:04:00.873Z,4.40
2017-11-11T05:06:29.353Z,4.40
2017-11-11T05:08:57.822Z,4.40
2017-11-11T05:11:25.533Z,4.40
2017-11-11T05:13:53.193Z,4.40
2017-11-11T05:16:20.906Z,4.40
2017-11-11T05:18:49.337Z,4.30
2017-11-11T05:21:17.036Z,4.30
2017-11-11T05:23:44.684Z,4.30
2017-11-11T05:26:12.393Z,4.30
2017-11-11T05:28:40.084Z,4.30
2017-11-11T05:31:07.819Z,4.20
2017-11-11T05:33:35.473Z,4.20
2017-11-11T05:36:03.173Z,4.30
2017-11-11T05:38:30.862Z,4.30
2017-11-11T05:40:58.525Z,4.30
2017-11-11T05:43:27.001Z,4.20
2017-11-11T05:45:54.647Z,4.10
2017-11-11T05:48:22.336Z,4.10
2017-11-11T05:50:50.753Z,4.20
2017-11-11T05:53:18.529Z,4.10
2017-11-11T05:55:46.188Z,4.10
2017-11-11T05:58:13.880Z,4.10
2017-11-11T06:00:42.306Z,4.20
2017-11-11T06:03:10.016Z,4.20
2017-11-11T06:05:38.478Z,4.20
2017-11-11T06:08:06.167Z,4.20
2017-11-11T06:10:34.586Z,4.20
2017-11-11T06:13:02.280Z,4.20
2017-11-11T06:15:29.932Z,4.30
2017-11-11T06:17:57.628Z,4.30
2017-11-11T06:20:26.053Z,4.30
2017-11-11T06:22:53.748Z,4.30
2017-11-11T06:25:22.174Z,4.40
2017-11-11T06:27:49.876Z,4.30
2017-11-11T06:30:17.544Z,4.40
2017-11-11T06:32:46.012Z,4.40
2017-11-11T06:35:13.672Z,4.30
2017-11-11T06:37:41.395Z,4.50
2017-11-11T06:40:09.051Z,4.50
2017-11-11T06:42:36.717Z,4.50
2017-11-11T06:45:04.452Z,4.60
2017-11-11T06:47:32.107Z,4.60
2017-11-11T06:49:59.825Z,4.60
2017-11-11T06:52:27.502Z,4.60
2017-11-11T06:54:55.977Z,4.70
2017-11-11T06:57:35.732Z,4.70
2017-11-11T07:00:04.269Z,4.70
2017-11-11T07:02:31.968Z,4.70
2017-11-11T07:05:00.442Z,4.80
2017-11-11T07:07:28.925Z,4.80
2017-11-11T07:09:57.396Z,4.90
2017-11-11T07:12:25.882Z,4.90
2017-11-11T07:14:54.355Z,4.90
2017-11-11T07:17:22.785Z,4.90
2017-11-11T07:19:50.534Z,4.90
2017-11-11T07:22:18.194Z,4.90
2017-11-11T07:24:45.909Z,5.00
2017-11-11T07:27:14.340Z,5.10
2017-11-11T07:29:42.052Z,5.10
2017-11-11T07:32:10.489Z,5.10
2017-11-11T07:34:38.197Z,5.10
2017-11-11T07:37:06.629Z,5.20
2017-11-11T07:39:34.364Z,5.20
2017-11-11T07:42:02.033Z,5.20
2017-11-11T07:44:29.696Z,5.20
2017-11-11T07:46:57.406Z,5.30
2017-11-11T07:49:25.836Z,5.30
2017-11-11T07:51:54.308Z,5.30
2017-11-11T07:54:21.965Z,5.30
2017-11-11T07:56:49.673Z,5.40
2017-11-11T07:59:18.112Z,5.40
2017-11-11T08:01:45.820Z,5.40
2017-11-11T08:04:14.248Z,5.50
2017-11-11T08:06:41.947Z,5.50
2017-11-11T08:09:09.620Z,5.50
2017-11-11T08:11:38.089Z,5.50
2017-11-11T08:14:06.568Z,5.60
2017-11-11T08:16:35.081Z,5.70
2017-11-11T08:19:02.752Z,5.60
2017-11-11T08:21:30.461Z,5.70
2017-11-11T08:23:58.897Z,5.80
2017-11-11T08:26:26.681Z,5.80
2017-11-11T08:28:54.396Z,5.80
2017-11-11T08:31:22.133Z,5.80
2017-11-11T08:33:50.589Z,5.90
2017-11-11T08:36:18.313Z,5.90
2017-11-11T08:38:45.980Z,6.00
2017-11-11T08:41:13.645Z,6.00
2017-11-11T08:43:41.385Z,6.10
2017-11-11T08:46:09.097Z,6.10
2017-11-11T08:48:36.843Z,6.30
2017-11-11T08:51:04.544Z,6.30
2017-11-11T08:53:32.256Z,6.30
2017-11-11T08:55:59.921Z,6.40
2017-11-11T08:58:27.633Z,6.40
2017-11-11T09:00:55.343Z,6.40
2017-11-11T09:03:23.048Z,6.40
2017-11-11T09:05:50.704Z,6.40
2017-11-11T09:08:18.412Z,6.40
2017-11-11T09:10:46.081Z,6.40
2017-11-11T09:13:13.789Z,6.40
2017-11-11T09:15:41.472Z,6.40
2017-11-11T09:18:09.192Z,6.40
2017-11-11T09:20:37.661Z,6.50
2017-11-11T09:23:06.127Z,6.60
2017-11-11T09:25:33.788Z,6.50
2017-11-11T09:28:01.476Z,6.50
2017-11-11T09:30:29.135Z,6.50
2017-11-11T09:32:56.844Z,6.60
2017-11-11T09:35:24.502Z,6.50
2017-11-11T09:37:52.207Z,6.50
2017-11-11T09:40:20.642Z,6.70
2017-11-11T09:42:48.335Z,6.60
2017-11-11T09:45:16.754Z,6.80
2017-11-11T09:47:44.455Z,6.70
2017-11-11T09:50:12.113Z,6.70
2017-11-11T09:52:39.804Z,6.80
2017-11-11T09:55:08.230Z,6.70
2017-11-11T09:57:35.932Z,6.70
2017-11-11T10:00:04.407Z,6.70
2017-11-11T10:02:32.867Z,6.70
2017-11-11T10:05:00.523Z,6.70
2017-11-11T10:07:28.221Z,6.70
2017-11-11T10:09:56.032Z,6.70
2017-11-11T10:12:23.725Z,6.70
2017-11-11T10:14:52.147Z,6.70
2017-11-11T10:17:19.848Z,6.70
2017-11-11T10:19:47.500Z,6.70
2017-11-11T10:22:15.226Z,6.60
2017-11-11T10:24:43.800Z,6.70
2017-11-11T10:27:11.524Z,6.70
2017-11-11T10:29:39.995Z,6.80
2017-11-11T10:32:07.728Z,6.70
2017-11-11T10:34:35.485Z,6.80
2017-11-11T10:37:03.168Z,6.80
2017-11-11T10:39:30.897Z,6.80
2017-11-11T10:41:58.611Z,6.80
2017-11-11T10:44:27.109Z,6.80
2017-11-11T10:46:54.780Z,6.80
2017-11-11T10:49:22.481Z,6.80
2017-11-11T10:51:50.145Z,6.90
2017-11-11T10:54:17.862Z,6.90
2017-11-11T10:56:45.516Z,7.00
2017-11-11T10:59:13.245Z,7.00
2017-11-11T11:01:41.668Z,7.10
2017-11-11T11:04:09.355Z,7.10
2017-11-11T11:06:37.013Z,7.10
2017-11-11T11:09:04.773Z,7.10
2017-11-11T11:11:32.427Z,7.10
2017-11-11T11:14:00.122Z,7.10
2017-11-11T11:16:28.550Z,7.10
2017-11-11T11:18:56.266Z,7.10
2017-11-11T11:21:23.936Z,7.10
2017-11-11T11:23:51.646Z,7.20
2017-11-11T11:26:19.349Z,7.20
2017-11-11T11:28:47.072Z,7.30
2017-11-11T11:31:14.749Z,7.40
2017-11-11T11:33:43.277Z,7.30
2017-11-11T11:36:10.947Z,7.30
2017-11-11T11:38:38.654Z,7.30
2017-11-11T11:41:07.093Z,7.30
2017-11-11T11:43:34.808Z,7.30
2017-11-11T11:46:03.252Z,7.30
2017-11-11T11:48:30.958Z,7.30
2017-11-11T11:50:58.621Z,7.30
2017-11-11T11:53:26.336Z,7.40
2017-11-11T11:55:53.998Z,7.40
2017-11-11T11:58:21.730Z,7.40
2017-11-11T12:00:49.405Z,7.40
2017-11-11T12:03:17.113Z,7.40
2017-11-11T12:05:44.789Z,7.40
2017-11-11T12:08:12.536Z,7.40
2017-11-11T12:10:40.212Z,7.40
2017-11-11T12:13:07.912Z,7.40
2017-11-11T12:15:35.577Z,7.40
2017-11-11T12:18:03.283Z,7.30
2017-11-11T12:20:30.938Z,7.30
2017-11-11T12:22:58.634Z,7.40
2017-11-11T12:25:26.293Z,7.50
2017-11-11T12:27:53.992Z,7.40
2017-11-11T12:30:22.421Z,7.40
2017-11-11T12:32:50.159Z,7.40
2017-11-11T12:35:17.825Z,7.40
2017-11-11T12:37:45.529Z,7.40
2017-11-11T12:40:13.191Z,7.40
2017-11-11T12:42:40.925Z,7.40
2017-11-11T12:45:08.585Z,7.40
2017-11-11T12:47:36.248Z,7.30
2017-11-11T12:50:03.960Z,7.30
2017-11-11T12:52:32.408Z,7.40
2017-11-11T12:55:00.146Z,7.40
2017-11-11T12:57:27.862Z,7.40
2017-11-11T12:59:55.577Z,7.30
2017-11-11T13:02:23.252Z,7.40
2017-11-11T13:04:50.972Z,7.40
2017-11-11T13:07:18.637Z,7.40
2017-11-11T13:09:46.357Z,7.40
2017-11-11T13:12:14.890Z,7.30
2017-11-11T13:14:42.609Z,7.30
2017-11-11T13:17:10.273Z,7.30
2017-11-11T13:19:38.018Z,7.30
2017-11-11T13:22:06.469Z,7.30
2017-11-11T13:24:34.212Z,7.30
2017-11-11T13:27:01.887Z,7.30
2017-11-11T13:29:29.597Z,7.30
2017-11-11T13:31:57.278Z,7.30
2017-11-11T13:34:25.430Z,7.40
2017-11-11T13:36:53.178Z,7.30
2017-11-11T13:39:21.031Z,7.30
2017-11-11T13:41:49.910Z,7.30
2017-11-11T13:44:18.517Z,7.30
2017-11-11T13:46:46.357Z,7.30
2017-11-11T13:49:14.840Z,7.40
2017-11-11T13:51:43.296Z,7.40
2017-11-11T13:54:11.161Z,7.40
2017-11-11T13:56:39.737Z,7.40
2017-11-11T13:59:07.527Z,7.40
2017-11-11T14:01:35.961Z,7.50
2017-11-11T14:04:03.824Z,7.50
2017-11-11T14:06:31.626Z,7.60
2017-11-11T14:09:00.160Z,7.60
2017-11-11T14:11:28.211Z,7.60
2017-11-11T14:13:56.052Z,7.60
2017-11-11T14:16:24.040Z,7.60
2017-11-11T14:18:53.344Z,7.50
2017-11-11T14:21:21.039Z,7.50
2017-11-11T14:23:48.755Z,7.60
2017-11-11T14:26:16.481Z,7.60
2017-11-11T14:28:44.240Z,7.60
2017-11-11T14:31:12.728Z,7.60
2017-11-11T14:33:40.578Z,7.60
2017-11-11T14:36:09.021Z,7.60
2017-11-11T14:38:36.732Z,7.60
2017-11-11T14:41:04.453Z,7.60
2017-11-11T14:43:32.264Z,7.60
2017-11-11T14:45:59.926Z,7.70
2017-11-11T14:48:27.733Z,7.70
2017-11-11T14:50:55.404Z,7.70
2017-11-11T14:53:23.140Z,7.80
2017-11-11T14:55:50.807Z,7.80
2017-11-11T14:58:18.514Z,7.80
2017-11-11T15:00:46.956Z,7.80
2017-11-11T15:03:14.652Z,7.80
2017-11-11T15:05:43.081Z,7.80
2017-11-11T15:08:10.748Z,7.80
2017-11-11T15:10:38.458Z,7.80
2017-11-11T15:13:06.128Z,7.80
2017-11-11T15:15:33.837Z,7.80
2017-11-11T15:18:01.508Z,7.80
2017-11-11T15:20:29.985Z,7.90
2017-11-11T15:22:57.668Z,7.90
2017-11-11T15:25:25.409Z,7.80
2017-11-11T15:27:53.850Z,7.80
2017-11-11T15:30:21.664Z,7.80
2017-11-11T15:32:50.093Z,7.80
2017-11-11T15:35:17.830Z,7.80
2017-11-11T15:37:45.497Z,7.80
2017-11-11T15:40:13.241Z,7.80
2017-11-11T15:42:40.925Z,7.90
2017-11-11T15:45:08.626Z,7.80
2017-11-11T15:47:37.065Z,7.80
2017-11-11T15:50:04.776Z,7.70
2017-11-11T15:52:33.197Z,7.80
2017-11-11T15:55:00.942Z,7.80
2017-11-11T15:57:28.652Z,7.80
2017-11-11T15:59:56.356Z,7.90
2017-11-11T16:02:24.017Z,7.90
2017-11-11T16:04:51.745Z,7.90
2017-11-11T16:07:20.177Z,7.90
2017-11-11T16:09:47.895Z,7.90
2017-11-11T16:12:16.343Z,7.90
2017-11-11T16:14:44.056Z,7.90
2017-11-11T16:17:11.787Z,7.90
2017-11-11T16:19:40.272Z,7.90
2017-11-11T16:22:09.215Z,7.80
2017-11-11T16:24:36.924Z,7.80
2017-11-11T16:27:04.643Z,7.90
2017-11-11T16:29:32.387Z,7.80
2017-11-11T16:32:00.093Z,7.90
2017-11-11T16:34:28.580Z,7.70
2017-11-11T16:36:57.008Z,7.80
2017-11-11T16:39:24.718Z,7.70
2017-11-11T16:41:53.150Z,7.70
2017-11-11T16:44:20.863Z,7.70
2017-11-11T16:46:48.568Z,7.70
2017-11-11T16:49:16.286Z,7.80
2017-11-11T16:51:44.148Z,7.90
2017-11-11T16:54:11.872Z,7.80
2017-11-11T16:56:39.547Z,7.80
2017-11-11T16:59:08.029Z,7.90
2017-11-11T17:01:36.978Z,7.90
2017-11-11T17:04:04.693Z,7.90
2017-11-11T17:06:33.140Z,8.00
2017-11-11T17:09:00.856Z,8.00
2017-11-11T17:11:28.531Z,7.90
2017-11-11T17:13:56.236Z,7.90
2017-11-11T17:16:24.674Z,8.00
2017-11-11T17:18:53.145Z,8.00
2017-11-11T17:21:20.792Z,8.00
2017-11-11T17:23:48.488Z,8.00
2017-11-11T17:26:16.148Z,7.90
2017-11-11T17:28:43.855Z,7.90
2017-11-11T17:31:11.558Z,7.90
2017-11-11T17:33:39.225Z,7.80
2017-11-11T17:36:06.929Z,7.70
2017-11-11T17:38:34.589Z,7.80
2017-11-11T17:41:02.281Z,7.80
2017-11-11T17:43:29.941Z,7.70
2017-11-11T17:45:57.644Z,7.60
2017-11-11T17:48:26.103Z,7.70
2017-11-11T17:50:53.809Z,7.60
2017-11-11T17:53:21.465Z,7.80
2017-11-11T17:55:49.173Z,7.60
2017-11-11T17:58:16.828Z,7.70
2017-11-11T18:00:44.529Z,7.60
2017-11-11T18:03:12.952Z,7.60
2017-11-11T18:05:40.652Z,7.60
2017-11-11T18:08:08.314Z,7.50
2017-11-11T18:10:36.025Z,7.50
2017-11-11T18:13:03.687Z,7.60
2017-11-11T18:15:31.392Z,7.70
2017-11-11T18:17:59.046Z,7.60
2017-11-11T18:20:26.752Z,7.60
2017-11-11T18:22:54.434Z,7.60
2017-11-11T18:25:22.142Z,7.60
2017-11-11T18:27:50.572Z,7.60
2017-11-11T18:30:18.281Z,7.60
2017-11-11T18:32:46.703Z,7.50
2017-11-11T18:35:14.397Z,7.50
2017-11-11T18:37:42.056Z,7.50
2017-11-11T18:40:09.755Z,7.50
2017-11-11T18:42:37.444Z,7.50
2017-11-11T18:45:05.195Z,7.50
2017-11-11T18:47:32.852Z,7.60
2017-11-11T18:50:00.576Z,7.60
2017-11-11T18:52:29.017Z,7.50
2017-11-11T18:54:56.728Z,7.50
2017-11-11T18:57:25.156Z,7.40
2017-11-11T18:59:52.860Z,7.40
2017-11-11T19:02:21.327Z,7.40
2017-11-11T19:04:49.849Z,7.30
2017-11-11T19:07:17.559Z,7.30
2017-11-11T19:09:45.269Z,7.30
2017-11-11T19:12:12.924Z,7.20
2017-11-11T19:14:40.624Z,7.10
2017-11-11T19:17:08.279Z,7.10
2017-11-11T19:19:35.988Z,7.00
2017-11-11T19:22:03.667Z,6.90
2017-11-11T19:24:31.373Z,6.90
2017-11-11T19:26:59.036Z,6.80
2017-11-11T19:29:26.760Z,6.70
2017-11-11T19:31:54.413Z,6.70
2017-11-11T19:34:22.121Z,6.60
2017-11-11T19:36:50.566Z,6.70
2017-11-11T19:39:18.272Z,6.70
2017-11-11T19:41:46.704Z,6.90
2017-11-11T19:44:14.409Z,6.90
2017-11-11T19:46:42.833Z,7.00
2017-11-11T19:49:10.515Z,6.90
2017-11-11T19:51:38.220Z,6.90
2017-11-11T19:54:05.884Z,6.80
2017-11-11T19:56:33.593Z,6.70
2017-11-11T19:59:01.257Z,6.70
2017-11-11T20:01:28.983Z,6.70
2017-11-11T20:03:56.650Z,6.80
2017-11-11T20:06:24.365Z,6.70
2017-11-11T20:08:52.788Z,6.80
2017-11-11T20:11:20.493Z,6.80
2017-11-11T20:13:48.148Z,6.80
2017-11-11T20:16:16.632Z,6.60
2017-11-11T20:18:45.080Z,6.50
2017-11-11T20:21:12.788Z,6.50
2017-11-11T20:23:40.434Z,6.40
2017-11-11T20:26:08.887Z,6.50
2017-11-11T20:28:36.589Z,6.50
2017-11-11T20:31:04.317Z,6.50
2017-11-11T20:33:31.990Z,6.50
2017-11-11T20:36:00.453Z,6.50
2017-11-11T20:38:28.176Z,6.50
2017-11-11T20:40:55.882Z,6.60
2017-11-11T20:43:24.316Z,6.80
2017-11-11T20:45:52.028Z,6.80
2017-11-11T20:48:20.470Z,6.80
2017-11-11T20:50:48.220Z,6.80
2017-11-11T20:53:15.916Z,6.80
2017-11-11T20:55:44.432Z,6.90
2017-11-11T20:58:12.103Z,6.90
2017-11-11T21:00:39.821Z,6.90
2017-11-11T21:03:08.253Z,6.70
2017-11-11T21:05:35.964Z,6.70
2017-11-11T21:08:04.428Z,6.80
2017-11-11T21:10:32.158Z,6.80
2017-11-11T21:12:59.852Z,6.80
2017-11-11T21:15:28.362Z,6.80
2017-11-11T21:17:56.025Z,6.80
2017-11-11T21:20:23.795Z,6.70
2017-11-11T21:22:51.517Z,6.70
2017-11-11T21:25:20.001Z,6.70
2017-11-11T21:27:48.421Z,6.60
2017-11-11T21:30:16.177Z,6.60
2017-11-11T21:32:43.839Z,6.60
2017-11-11T21:35:11.533Z,6.60
2017-11-11T21:37:39.197Z,6.70
2017-11-11T21:40:06.894Z,6.60
2017-11-11T21:42:34.540Z,6.70
2017-11-11T21:45:03.028Z,6.60
2017-11-11T21:47:30.673Z,6.60
2017-11-11T21:49:59.136Z,6.60
2017-11-11T21:52:26.795Z,6.50
2017-11-11T21:54:54.486Z,6.60
2017-11-11T21:57:22.147Z,6.50
2017-11-11T21:59:49.856Z,6.50
2017-11-11T22:02:17.514Z,6.40
2017-11-11T22:04:45.223Z,6.30
2017-11-11T22:07:12.886Z,6.30
2017-11-11T22:09:40.561Z,6.30
2017-11-11T22:12:08.266Z,6.40
2017-11-11T22:14:35.919Z,6.40
2017-11-11T22:17:03.612Z,6.40
2017-11-11T22:19:32.030Z,6.30
2017-11-11T22:21:59.739Z,6.30
2017-11-11T22:24:28.168Z,6.40
2017-11-11T22:26:55.876Z,6.40
2017-11-11T22:29:24.303Z,6.40
2017-11-11T22:31:52.016Z,6.50
2017-11-11T22:34:20.520Z,6.40
2017-11-11T22:36:48.248Z,6.30
2017-11-11T22:39:15.914Z,6.40
2017-11-11T22:41:44.390Z,6.40
2017-11-11T22:44:12.808Z,6.30
2017-11-11T22:46:40.513Z,6.30
2017-11-11T22:49:08.168Z,6.20
2017-11-11T22:51:35.876Z,6.10
2017-11-11T22:54:03.549Z,6.10
2017-11-11T22:56:31.584Z,6.10
2017-11-11T22:59:00.017Z,6.00
2017-11-11T23:01:27.732Z,6.00
2017-11-11T23:03:55.392Z,5.90
2017-11-11T23:06:23.200Z,5.90
2017-11-11T23:08:50.862Z,5.90
2017-11-11T23:11:18.556Z,5.90
2017-11-11T23:13:46.984Z,6.10
2017-11-11T23:16:14.684Z,6.10
2017-11-11T23:18:42.349Z,6.10
2017-11-11T23:21:10.860Z,6.10
2017-11-11T23:23:38.521Z,6.00
2017-11-11T23:26:06.228Z,6.10
2017-11-11T23:28:33.895Z,6.20
2017-11-11T23:31:01.598Z,6.20
2017-11-11T23:33:29.261Z,6.00
2017-11-11T23:35:56.969Z,5.90
2017-11-11T23:38:24.633Z,5.90
2017-11-11T23:40:52.344Z,6.00
2017-11-11T23:43:20.005Z,5.90
2017-11-11T23:45:47.708Z,5.90
2017-11-11T23:48:15.377Z,5.90
2017-11-11T23:50:43.084Z,5.90
2017-11-11T23:53:10.752Z,5.90
2017-11-11T23:55:38.451Z,5.90
2017-11-11T23:58:06.106Z,5.70
